עמוד ראשי
METAR-TAF:

METAR-TAF

שדות תעופה :

Ha'il, ערב הסעודית

קו רוחב: 27-26N, קו אורך: 041-41E, גובה: 1015מטר

תצפית מזג אוויר נוכחית

הדו"ח נערך לפני 50דקות, בשעה 19:00 UTC
רוח 4קשר מכיוון צפון
טמפרטורת 34 צלסיוס
לחות 11%
לחץ 1014 hPa
ראות 10 קילומטר או יותר
ללא עננים שבסיסם נמוך מ 5000 רגל או קומולונימבוס

METAR: OEHL 131900Z 36004KT CAVOK 34/00 Q1014

זמן: 22:50 (19:50 UTC)

תחזית

הדו"ח נערך לפני 8 שעות ו 50דקות, בשעה 11:00 UTC
תחזית בתוקף מ 13 ב 12 UTC עד 14 ב 18 UTC
רוח 10קשר מכיוון צפון
ראות 10 קילומטר או יותר
ללא עננים שבסיסם נמוך מ 5000 רגל או קומולונימבוס

TAF: OEHL 131100Z 1312/1418 35010KT CAVOK

תצפיות ותחזיות מזג אוויר לגבי יותר מ- 4,000 שדות תעופה ברחבי העולם. דוחות METAR ו- TAF.

התחנות הזמינות מסומנות בנקודות צהובות ואדומות על גבי המפה.

העבר את העכבר לנקודה הצבעונית על מנת לראות את שם התחנה.

לאחר מכן, לחץ כדי לראות את תוכן ואת תחזיות מזג האוויר.

כדי לשנות את המפה: לחץ על הכפתורים הירוקים עם הפלוס השחור כדי להתקרב; על הכפתור הירוק עם המקף כדי להתרחק; או בחיצים הירוקים למפות סמוכות.


METAR-TAF: